This is the latest recevied weather packets stored in our database for station/object EA5HPA-11. If no packets are shown the sender has not sent any weather packets the latest 1 day(s).
| Time | Temp. | Humidity | Pressure | Rain* | Wind** | Luminosity | Snow |
|---|---|---|---|---|---|---|---|
| 1778078484 | 21.11° C | 66% | 1010 hPa | 0 mm | - | - | - |
| 1778069154 | 22.22° C | 52% | 1010 hPa | 0 mm | - | - | - |
| 1778068853 | 22.22° C | 52% | 1010 hPa | 0 mm | - | - | - |
| 1778067950 | 22.22° C | 56% | 1010 hPa | 0 mm | - | - | - |
| 1778067649 | 22.22° C | 56% | 1010 hPa | 0 mm | - | - | - |
| 1778067348 | 22.22° C | 56% | 1010 hPa | 0 mm | - | - | - |
| 1778067047 | 22.22° C | 56% | 1010 hPa | 0 mm | - | - | - |
| 1778066445 | 22.78° C | 55% | 1011 hPa | 0 mm | - | - | - |
| 1778066144 | 22.78° C | 55% | 1011 hPa | 0 mm | - | - | - |
| 1778065542 | 22.22° C | 53% | 1011 hPa | 0 mm | - | - | - |
| 1778064940 | 22.22° C | 54% | 1011 hPa | 0 mm | - | - | - |
| 1778064037 | 21.67° C | 55% | 1011 hPa | 0 mm | - | - | - |
| 1778063736 | 21.67° C | 56% | 1011 hPa | 0 mm | - | - | - |
| 1778059523 | 20.56° C | 61% | 1011 hPa | 0 mm | - | - | - |
| 1778058620 | 20° C | 64% | 1011 hPa | 0 mm | - | - | - |
| 1778058319 | 20° C | 64% | 1011 hPa | 0 mm | - | - | - |
| 1778058018 | 20° C | 64% | 1011 hPa | 0 mm | - | - | - |
| 1778057416 | 20° C | 65% | 1011 hPa | 0 mm | - | - | - |
| 1778057115 | 19.44° C | 64% | 1011 hPa | 0 mm | - | - | - |
| 1778056814 | 19.44° C | 64% | 1011 hPa | 0 mm | - | - | - |
| 1778056513 | 19.44° C | 64% | 1011 hPa | 0 mm | - | - | - |
| 1778056212 | 19.44° C | 60% | 1011 hPa | 0 mm | - | - | - |
| 1778055911 | 19.44° C | 60% | 1011 hPa | 0 mm | - | - | - |
| 1778055610 | 19.44° C | 60% | 1011 hPa | 0 mm | - | - | - |
| 1778055309 | 19.44° C | 60% | 1011 hPa | 0 mm | - | - | - |
* Rain latest hour (hover to see other rain measurements)
** Current wind speed in m/s (hover to see current wind gust speed)